Caruthers, CA (93609)

4:31 AM PDT on August 28, 2014 (GMT -0700)
Wildflower | Change Station
CLOSE
Current Station
Personal Weather Station
Location: Selma, CA
Elevation: 282 ft
Nearby Weather Stations

Elev 282 ft 36.51 °N, 119.68 °W | Updated 2 seconds ago

Clear
Clear
62.8 °F
Feels Like 62.8 °F
N
0.0
Wind Variable Wind from ESE
Gusts 0.0 mph

Today
High -- | Low -- °F
--% Chance of Precip.
Yesterday
High -- | Low -- °F
Precip. -- in
6:27 AM 7:32 PM
Waxing Crescent, 7% visible
Pressure 30.00 in
Visibility 10.0 miles
Clouds Clear
Dew Point 55 °F
Humidity 75%
Rainfall 0.00 in
Snow Depth Not available.
UV 0 out of 12
Pollen 9.10 out of 12
Air Quality Not available.
Flu Activity Not available.
METAR KNLC 281056Z AUTO 34005KT 10SM CLR 17/04 A3000 RMK AO2 SLP158 T01720039

More Conditions Fewer Conditions

Pressure 30.00 in
Visibility 10.0 miles
Clouds Clear
Dew Point 55 °F
Humidity 75%
Rainfall 0.00 in
Snow Depth Not available.
UV 0 out of 12
Pollen 9.10 out of 12
Air Quality Not available.
Flu Activity Not available.
METAR KNLC 281056Z AUTO 34005KT 10SM CLR 17/04 A3000 RMK AO2 SLP158 T01720039

More Conditions Fewer Conditions

10-Day Weather Forecast

Almanac

Astronomy

Aug. 28, 2014 Rise Set
Actual Time 6:27 AM PDT 7:32 PM PDT
Civil Twilight 6:00 AM PDT 7:59 PM PDT
Nautical Twilight 5:29 AM PDT 8:31 PM PDT
Astronomical Twilight 4:56 AM PDT 9:03 PM PDT
Moon 9:18 AM PDT 9:06 PM PDT
Length of Visible Light 13h 58m
Length of Day
13h 05m
Tomorrow will be 2m 12s shorter.
Waxing Crescent, 7% of the Moon is Illuminated
Today
Waxing Crescent
Sep 2
First Quarter
Sep 8
Full
Sep 15
Last Quarter
Sep 24
New

Today's Extremes

State Highs State Lows

Community

WunderPhotos

Upload Photos

1,747,928 photos uploaded!

Nearby

Snow Depth

Station Depth Elevation
Leavitt Lake 0 in 9400 ft
Sonora Pass 0 in 8800 ft
Leavitt Meadows 1 in 7200 ft
Summit Meadow 0 in 9122 ft
Blue Lakes 0 in 8000 ft

Earthquake Activity

City Distance Mag. Time & Date
Soledad, California 70 miles 2.6 12:15 PM PDT
2014-08-26
Minimum magnitude displayed is 2.5.

Coastal Water Temperatures

Place Temperature
No Stations Reporting

Nearby Weather Stations